sensor_id;sensor_type;location;lat;lon;timestamp;pressure;altitude;pressure_sealevel;temperature;humidity
22181;BME280;11256;50.830;12.834;2022-08-19T00:01:51;97000.41;;;24.26;60.40
22181;BME280;11256;50.830;12.834;2022-08-19T00:06:52;96987.25;;;24.12;60.66
22181;BME280;11256;50.830;12.834;2022-08-19T00:11:53;96994.75;;;24.12;60.83
22181;BME280;11256;50.830;12.834;2022-08-19T00:16:55;96984.00;;;24.00;61.88
22181;BME280;11256;50.830;12.834;2022-08-19T00:21:55;96987.16;;;24.02;61.53
22181;BME280;11256;50.830;12.834;2022-08-19T00:26:56;96977.59;;;23.92;61.65
22181;BME280;11256;50.830;12.834;2022-08-19T00:31:57;96988.31;;;23.94;62.06
22181;BME280;11256;50.830;12.834;2022-08-19T00:36:59;96979.56;;;23.88;61.81
22181;BME280;11256;50.830;12.834;2022-08-19T00:42:00;96964.50;;;23.86;61.93
22181;BME280;11256;50.830;12.834;2022-08-19T00:47:00;96975.22;;;23.91;61.60
22181;BME280;11256;50.830;12.834;2022-08-19T00:52:52;96962.88;;;23.85;61.21
22181;BME280;11256;50.830;12.834;2022-08-19T00:57:53;96949.00;;;23.81;61.32
22181;BME280;11256;50.830;12.834;2022-08-19T01:02:55;96952.16;;;23.80;61.54
22181;BME280;11256;50.830;12.834;2022-08-19T01:07:58;96949.69;;;23.68;60.95
22181;BME280;11256;50.830;12.834;2022-08-19T01:12:59;96956.03;;;23.68;61.58
22181;BME280;11256;50.830;12.834;2022-08-19T01:18:06;96960.72;;;23.61;61.09
22181;BME280;11256;50.830;12.834;2022-08-19T01:23:07;96967.00;;;23.58;60.54
22181;BME280;11256;50.830;12.834;2022-08-19T01:28:15;96971.75;;;23.57;60.82
22181;BME280;11256;50.830;12.834;2022-08-19T01:33:15;96965.34;;;23.46;60.48
22181;BME280;11256;50.830;12.834;2022-08-19T01:38:37;96970.53;;;23.51;60.39
22181;BME280;11256;50.830;12.834;2022-08-19T01:43:38;96959.44;;;23.48;60.56
22181;BME280;11256;50.830;12.834;2022-08-19T01:48:41;96968.41;;;23.38;61.13
22181;BME280;11256;50.830;12.834;2022-08-19T01:53:42;96950.31;;;23.47;61.08
22181;BME280;11256;50.830;12.834;2022-08-19T01:58:48;96925.09;;;23.56;61.16
22181;BME280;11256;50.830;12.834;2022-08-19T02:03:50;96928.84;;;23.34;62.55
22181;BME280;11256;50.830;12.834;2022-08-19T02:08:54;96944.63;;;23.33;61.59
22181;BME280;11256;50.830;12.834;2022-08-19T02:13:55;96963.22;;;23.33;61.48
22181;BME280;11256;50.830;12.834;2022-08-19T02:18:55;96972.22;;;23.23;61.56
22181;BME280;11256;50.830;12.834;2022-08-19T02:23:56;96975.63;;;23.13;60.84
22181;BME280;11256;50.830;12.834;2022-08-19T02:28:57;96976.84;;;23.15;60.79
22181;BME280;11256;50.830;12.834;2022-08-19T02:33:57;96974.06;;;23.15;61.02
22181;BME280;11256;50.830;12.834;2022-08-19T02:38:58;96956.44;;;23.27;60.88
22181;BME280;11256;50.830;12.834;2022-08-19T02:44:00;96963.56;;;23.28;60.70
22181;BME280;11256;50.830;12.834;2022-08-19T02:49:05;96982.00;;;23.17;61.84
22181;BME280;11256;50.830;12.834;2022-08-19T02:54:07;96986.19;;;23.04;60.91
22181;BME280;11256;50.830;12.834;2022-08-19T02:59:09;96994.50;;;23.04;61.44
22181;BME280;11256;50.830;12.834;2022-08-19T03:04:12;97017.72;;;22.99;61.54
22181;BME280;11256;50.830;12.834;2022-08-19T03:09:14;97031.97;;;23.01;62.05
22181;BME280;11256;50.830;12.834;2022-08-19T03:14:15;97020.94;;;23.01;61.43
22181;BME280;11256;50.830;12.834;2022-08-19T03:19:17;97028.00;;;22.99;61.43
22181;BME280;11256;50.830;12.834;2022-08-19T03:24:19;97016.19;;;23.02;61.29
22181;BME280;11256;50.830;12.834;2022-08-19T03:29:20;97016.19;;;23.02;61.41
22181;BME280;11256;50.830;12.834;2022-08-19T03:34:25;97011.50;;;23.06;61.36
22181;BME280;11256;50.830;12.834;2022-08-19T03:39:26;97003.63;;;23.11;61.68
22181;BME280;11256;50.830;12.834;2022-08-19T03:44:27;97005.19;;;23.09;61.61
22181;BME280;11256;50.830;12.834;2022-08-19T03:49:30;97012.34;;;23.10;62.02
22181;BME280;11256;50.830;12.834;2022-08-19T03:54:31;97012.22;;;23.03;61.18
22181;BME280;11256;50.830;12.834;2022-08-19T03:59:35;97025.31;;;23.06;61.67
22181;BME280;11256;50.830;12.834;2022-08-19T04:04:40;97024.47;;;23.02;61.63
22181;BME280;11256;50.830;12.834;2022-08-19T04:09:41;97002.34;;;23.02;61.53
22181;BME280;11256;50.830;12.834;2022-08-19T04:14:41;97012.16;;;22.96;61.91
22181;BME280;11256;50.830;12.834;2022-08-19T04:19:42;97012.19;;;22.99;62.21
22181;BME280;11256;50.830;12.834;2022-08-19T04:24:43;97009.41;;;22.96;62.31
22181;BME280;11256;50.830;12.834;2022-08-19T04:29:43;97012.16;;;22.96;61.91
22181;BME280;11256;50.830;12.834;2022-08-19T04:34:43;97020.81;;;22.94;62.31
22181;BME280;11256;50.830;12.834;2022-08-19T04:39:43;97015.25;;;22.91;62.45
22181;BME280;11256;50.830;12.834;2022-08-19T04:45:05;97010.50;;;22.88;62.37
22181;BME280;11256;50.830;12.834;2022-08-19T04:50:06;97002.56;;;22.86;62.27
22181;BME280;11256;50.830;12.834;2022-08-19T04:55:09;97021.09;;;22.86;62.78
22181;BME280;11256;50.830;12.834;2022-08-19T05:00:10;97025.13;;;22.92;62.85
22181;BME280;11256;50.830;12.834;2022-08-19T05:05:11;97011.63;;;22.87;62.87
22181;BME280;11256;50.830;12.834;2022-08-19T05:10:12;97014.00;;;22.85;62.44
22181;BME280;11256;50.830;12.834;2022-08-19T05:15:13;97016.75;;;22.85;62.12
22181;BME280;11256;50.830;12.834;2022-08-19T05:20:13;97032.59;;;22.88;62.96
22181;BME280;11256;50.830;12.834;2022-08-19T05:25:32;97021.53;;;22.88;62.64
22181;BME280;11256;50.830;12.834;2022-08-19T05:30:33;97037.38;;;22.91;62.80
22181;BME280;11256;50.830;12.834;2022-08-19T05:35:36;97047.25;;;22.92;63.11
22181;BME280;11256;50.830;12.834;2022-08-19T05:40:37;97053.09;;;22.87;63.04
22181;BME280;11256;50.830;12.834;2022-08-19T05:45:39;97066.50;;;22.85;63.00
22181;BME280;11256;50.830;12.834;2022-08-19T05:50:41;97077.97;;;22.87;63.19
22181;BME280;11256;50.830;12.834;2022-08-19T05:55:42;97089.47;;;22.89;62.78
22181;BME280;11256;50.830;12.834;2022-08-19T06:00:43;97104.34;;;22.81;62.84
22181;BME280;11256;50.830;12.834;2022-08-19T06:05:44;97109.28;;;22.68;62.75
22181;BME280;11256;50.830;12.834;2022-08-19T06:10:46;97112.13;;;22.72;63.27
22181;BME280;11256;50.830;12.834;2022-08-19T06:15:46;97128.22;;;22.66;63.99
22181;BME280;11256;50.830;12.834;2022-08-19T06:20:46;97141.25;;;22.66;63.47
22181;BME280;11256;50.830;12.834;2022-08-19T06:25:47;97149.97;;;22.68;63.55
22181;BME280;11256;50.830;12.834;2022-08-19T06:30:47;97140.13;;;22.70;62.91
22181;BME280;11256;50.830;12.834;2022-08-19T06:35:48;97148.06;;;22.72;63.65
22181;BME280;11256;50.830;12.834;2022-08-19T06:40:48;97166.63;;;22.75;64.14
22181;BME280;11256;50.830;12.834;2022-08-19T06:45:48;97176.09;;;22.74;63.34
22181;BME280;11256;50.830;12.834;2022-08-19T06:50:51;97155.84;;;22.66;64.28
22181;BME280;11256;50.830;12.834;2022-08-19T06:55:52;97167.09;;;22.77;63.17
22181;BME280;11256;50.830;12.834;2022-08-19T07:01:02;97161.88;;;22.72;63.79
22181;BME280;11256;50.830;12.834;2022-08-19T07:06:05;97170.69;;;22.81;63.80
22181;BME280;11256;50.830;12.834;2022-08-19T07:11:07;97161.22;;;22.82;64.28
22181;BME280;11256;50.830;12.834;2022-08-19T07:16:13;97156.25;;;22.94;64.22
22181;BME280;11256;50.830;12.834;2022-08-19T07:21:23;97158.31;;;22.97;65.22
22181;BME280;11256;50.830;12.834;2022-08-19T07:26:27;97178.00;;;22.96;64.99
22181;BME280;11256;50.830;12.834;2022-08-19T07:31:28;97178.88;;;23.00;65.25
22181;BME280;11256;50.830;12.834;2022-08-19T07:36:28;97180.88;;;23.03;65.83
22181;BME280;11256;50.830;12.834;2022-08-19T07:41:34;97188.34;;;22.99;65.73
22181;BME280;11256;50.830;12.834;2022-08-19T07:46:39;97186.00;;;23.01;65.72
22181;BME280;11256;50.830;12.834;2022-08-19T07:51:40;97193.88;;;22.99;65.21
22181;BME280;11256;50.830;12.834;2022-08-19T07:56:40;97197.78;;;22.98;65.16
22181;BME280;11256;50.830;12.834;2022-08-19T08:01:41;97195.78;;;22.95;65.08
22181;BME280;11256;50.830;12.834;2022-08-19T08:06:42;97203.44;;;23.05;65.28
22181;BME280;11256;50.830;12.834;2022-08-19T08:12:07;97212.91;;;23.04;65.05
22181;BME280;11256;50.830;12.834;2022-08-19T08:17:10;97218.53;;;23.11;64.95
22181;BME280;11256;50.830;12.834;2022-08-19T08:22:15;97208.97;;;23.05;64.94
22181;BME280;11256;50.830;12.834;2022-08-19T08:27:38;97224.84;;;23.11;64.93
22181;BME280;11256;50.830;12.834;2022-08-19T08:32:40;97209.47;;;23.14;65.44
22181;BME280;11256;50.830;12.834;2022-08-19T08:37:41;97227.38;;;23.20;65.23
22181;BME280;11256;50.830;12.834;2022-08-19T08:42:49;97215.00;;;23.14;65.28
22181;BME280;11256;50.830;12.834;2022-08-19T08:47:55;97240.34;;;23.16;65.09
22181;BME280;11256;50.830;12.834;2022-08-19T08:52:58;97237.44;;;23.09;65.05
22181;BME280;11256;50.830;12.834;2022-08-19T08:58:09;97243.09;;;23.16;65.48
22181;BME280;11256;50.830;12.834;2022-08-19T09:03:17;97243.78;;;23.09;65.08
22181;BME280;11256;50.830;12.834;2022-08-19T09:14:32;97214.97;;;23.10;65.43
22181;BME280;11256;50.830;12.834;2022-08-19T09:24:54;97203.84;;;23.07;65.17
22181;BME280;11256;50.830;12.834;2022-08-19T09:29:54;97204.63;;;23.04;65.23
22181;BME280;11256;50.830;12.834;2022-08-19T09:34:55;97217.03;;;23.17;66.74
22181;BME280;11256;50.830;12.834;2022-08-19T09:39:58;97222.06;;;23.34;66.60
22181;BME280;11256;50.830;12.834;2022-08-19T09:44:58;97215.97;;;23.51;65.67
22181;BME280;11256;50.830;12.834;2022-08-19T09:49:58;97216.91;;;23.62;65.87
22181;BME280;11256;50.830;12.834;2022-08-19T09:54:59;97224.22;;;23.77;65.34
22181;BME280;11256;50.830;12.834;2022-08-19T09:59:59;97219.38;;;23.70;65.25
22181;BME280;11256;50.830;12.834;2022-08-19T10:04:59;97216.94;;;23.65;64.83
22181;BME280;11256;50.830;12.834;2022-08-19T10:10:18;97224.47;;;23.65;64.46
22181;BME280;11256;50.830;12.834;2022-08-19T10:15:19;97226.38;;;23.61;64.28
22181;BME280;11256;50.830;12.834;2022-08-19T10:20:21;97233.25;;;23.74;65.49
22181;BME280;11256;50.830;12.834;2022-08-19T10:25:22;97232.00;;;23.68;65.01
22181;BME280;11256;50.830;12.834;2022-08-19T10:30:23;97234.88;;;23.75;65.64
22181;BME280;11256;50.830;12.834;2022-08-19T10:35:23;97236.78;;;23.71;65.19
22181;BME280;11256;50.830;12.834;2022-08-19T10:40:27;97251.13;;;23.80;65.20
22181;BME280;11256;50.830;12.834;2022-08-19T10:45:27;97262.19;;;23.80;65.70
22181;BME280;11256;50.830;12.834;2022-08-19T10:50:28;97272.53;;;23.83;65.24
22181;BME280;11256;50.830;12.834;2022-08-19T10:55:47;97270.16;;;23.85;65.14
22181;BME280;11256;50.830;12.834;2022-08-19T11:01:07;97258.69;;;23.83;65.41
22181;BME280;11256;50.830;12.834;2022-08-19T11:06:08;97268.16;;;23.82;64.91
22181;BME280;11256;50.830;12.834;2022-08-19T11:11:08;97262.66;;;23.85;65.38
22181;BME280;11256;50.830;12.834;2022-08-19T11:16:12;97265.69;;;24.03;65.57
22181;BME280;11256;50.830;12.834;2022-08-19T11:26:20;97285.66;;;24.19;64.89
22181;BME280;11256;50.830;12.834;2022-08-19T11:31:23;97268.22;;;24.15;64.82
22181;BME280;11256;50.830;12.834;2022-08-19T11:36:24;97263.84;;;24.14;64.77
22181;BME280;11256;50.830;12.834;2022-08-19T11:41:25;97271.22;;;24.03;64.34
22181;BME280;11256;50.830;12.834;2022-08-19T11:46:26;97282.31;;;24.03;64.46
22181;BME280;11256;50.830;12.834;2022-08-19T11:51:30;97271.28;;;24.06;64.72
22181;BME280;11256;50.830;12.834;2022-08-19T11:56:31;97273.53;;;23.97;64.74
22181;BME280;11256;50.830;12.834;2022-08-19T12:01:31;97270.31;;;23.92;64.57
22181;BME280;11256;50.830;12.834;2022-08-19T12:06:32;97275.66;;;23.81;64.30
22181;BME280;11256;50.830;12.834;2022-08-19T12:11:34;97296.25;;;23.84;64.36
22181;BME280;11256;50.830;12.834;2022-08-19T12:16:34;97299.34;;;23.79;64.70
22181;BME280;11256;50.830;12.834;2022-08-19T12:21:35;97312.41;;;23.78;64.45
22181;BME280;11256;50.830;12.834;2022-08-19T12:26:36;97302.41;;;23.70;64.17
22181;BME280;11256;50.830;12.834;2022-08-19T12:31:36;97315.03;;;23.68;63.99
22181;BME280;11256;50.830;12.834;2022-08-19T12:36:36;97310.25;;;23.65;63.76
22181;BME280;11256;50.830;12.834;2022-08-19T12:41:37;97309.34;;;23.57;63.45
22181;BME280;11256;50.830;12.834;2022-08-19T12:46:39;97322.38;;;23.57;63.21
22181;BME280;11256;50.830;12.834;2022-08-19T12:51:39;97315.56;;;23.51;63.79
22181;BME280;11256;50.830;12.834;2022-08-19T12:56:39;97320.69;;;23.49;63.09
22181;BME280;11256;50.830;12.834;2022-08-19T13:01:40;97320.56;;;23.42;63.19
22181;BME280;11256;50.830;12.834;2022-08-19T13:06:42;97308.31;;;23.39;63.41
22181;BME280;11256;50.830;12.834;2022-08-19T13:11:42;97307.84;;;23.37;63.57
22181;BME280;11256;50.830;12.834;2022-08-19T13:16:43;97298.91;;;23.47;63.83
22181;BME280;11256;50.830;12.834;2022-08-19T13:21:43;97298.22;;;23.54;63.64
22181;BME280;11256;50.830;12.834;2022-08-19T13:26:44;97314.72;;;23.47;63.47
22181;BME280;11256;50.830;12.834;2022-08-19T13:31:44;97307.75;;;23.56;63.35
22181;BME280;11256;50.830;12.834;2022-08-19T13:37:04;97293.34;;;23.44;63.02
22181;BME280;11256;50.830;12.834;2022-08-19T13:42:04;97302.91;;;23.50;63.37
22181;BME280;11256;50.830;12.834;2022-08-19T13:47:06;97302.91;;;23.50;63.17
22181;BME280;11256;50.830;12.834;2022-08-19T13:52:06;97290.63;;;23.47;63.15
22181;BME280;11256;50.830;12.834;2022-08-19T13:57:07;97297.41;;;23.53;63.54
22181;BME280;11256;50.830;12.834;2022-08-19T14:02:07;97293.13;;;23.56;63.34
22181;BME280;11256;50.830;12.834;2022-08-19T14:07:07;97288.44;;;23.60;63.18
22181;BME280;11256;50.830;12.834;2022-08-19T14:12:09;97288.44;;;23.60;63.16
22181;BME280;11256;50.830;12.834;2022-08-19T14:17:09;97292.75;;;23.57;62.98
22181;BME280;11256;50.830;12.834;2022-08-19T14:22:10;97283.25;;;23.58;62.69
22181;BME280;11256;50.830;12.834;2022-08-19T14:27:10;97296.81;;;23.67;62.99
22181;BME280;11256;50.830;12.834;2022-08-19T14:32:11;97287.78;;;23.70;62.96
22181;BME280;11256;50.830;12.834;2022-08-19T14:37:13;97288.94;;;23.69;62.83
22181;BME280;11256;50.830;12.834;2022-08-19T14:42:16;97292.47;;;23.66;62.86
22181;BME280;11256;50.830;12.834;2022-08-19T14:47:16;97284.50;;;23.61;62.95
22181;BME280;11256;50.830;12.834;2022-08-19T14:52:17;97286.59;;;23.71;62.72
22181;BME280;11256;50.830;12.834;2022-08-19T14:57:17;97304.06;;;23.75;62.69
22181;BME280;11256;50.830;12.834;2022-08-19T15:02:17;97298.56;;;23.78;62.62
22181;BME280;11256;50.830;12.834;2022-08-19T15:07:18;97303.81;;;23.87;63.04
22181;BME280;11256;50.830;12.834;2022-08-19T15:12:18;97302.34;;;23.93;62.66
22181;BME280;11256;50.830;12.834;2022-08-19T15:17:18;97297.19;;;23.91;62.60
22181;BME280;11256;50.830;12.834;2022-08-19T15:22:19;97301.78;;;23.84;62.40
22181;BME280;11256;50.830;12.834;2022-08-19T15:27:19;97320.19;;;23.95;62.68
22181;BME280;11256;50.830;12.834;2022-08-19T15:32:19;97301.53;;;23.92;62.58
22181;BME280;11256;50.830;12.834;2022-08-19T15:37:20;97302.25;;;23.86;62.33
22181;BME280;11256;50.830;12.834;2022-08-19T15:42:24;97292.28;;;23.81;62.62
22181;BME280;11256;50.830;12.834;2022-08-19T15:47:28;97288.41;;;23.86;62.43
22181;BME280;11256;50.830;12.834;2022-08-19T15:52:28;97288.72;;;23.81;62.53
22181;BME280;11256;50.830;12.834;2022-08-19T15:57:29;97293.00;;;23.75;62.32
22181;BME280;11256;50.830;12.834;2022-08-19T16:02:29;97299.28;;;23.72;62.32
22181;BME280;11256;50.830;12.834;2022-08-19T16:07:48;97290.44;;;23.63;62.12
22181;BME280;11256;50.830;12.834;2022-08-19T16:12:50;97287.66;;;23.63;62.32
22181;BME280;11256;50.830;12.834;2022-08-19T16:17:50;97300.00;;;23.69;62.42
22181;BME280;11256;50.830;12.834;2022-08-19T16:22:50;97300.69;;;23.59;61.89
22181;BME280;11256;50.830;12.834;2022-08-19T16:27:52;97273.75;;;23.56;62.14
22181;BME280;11256;50.830;12.834;2022-08-19T16:32:53;97283.94;;;23.52;61.86
22181;BME280;11256;50.830;12.834;2022-08-19T16:37:53;97287.03;;;23.47;61.93
22181;BME280;11256;50.830;12.834;2022-08-19T16:42:54;97294.19;;;23.48;62.24
22181;BME280;11256;50.830;12.834;2022-08-19T16:47:55;97290.22;;;23.45;61.94
22181;BME280;11256;50.830;12.834;2022-08-19T16:52:57;97309.50;;;23.42;61.77
22181;BME280;11256;50.830;12.834;2022-08-19T16:57:57;97296.06;;;23.40;61.87
22181;BME280;11256;50.830;12.834;2022-08-19T17:03:07;97293.25;;;23.37;62.06
22181;BME280;11256;50.830;12.834;2022-08-19T17:08:11;97292.06;;;23.38;62.01
22181;BME280;11256;50.830;12.834;2022-08-19T17:13:12;97272.97;;;23.29;62.10
22181;BME280;11256;50.830;12.834;2022-08-19T17:18:14;97293.97;;;23.34;62.05
22181;BME280;11256;50.830;12.834;2022-08-19T17:23:15;97280.88;;;23.31;62.14
22181;BME280;11256;50.830;12.834;2022-08-19T17:28:22;97288.84;;;23.36;62.27
22181;BME280;11256;50.830;12.834;2022-08-19T17:33:23;97291.84;;;23.24;62.02
22181;BME280;11256;50.830;12.834;2022-08-19T17:38:23;97298.50;;;23.19;61.80
22181;BME280;11256;50.830;12.834;2022-08-19T17:43:25;97304.72;;;23.16;61.90
22181;BME280;11256;50.830;12.834;2022-08-19T17:48:25;97306.56;;;23.09;61.97
22181;BME280;11256;50.830;12.834;2022-08-19T17:53:26;97306.91;;;23.04;61.80
22181;BME280;11256;50.830;12.834;2022-08-19T17:58:26;97312.09;;;23.09;61.82
22181;BME280;11256;50.830;12.834;2022-08-19T18:03:26;97314.72;;;22.98;61.84
22181;BME280;11256;50.830;12.834;2022-08-19T18:08:28;97328.88;;;22.97;61.84
22181;BME280;11256;50.830;12.834;2022-08-19T18:13:29;97328.47;;;22.95;61.89
22181;BME280;11256;50.830;12.834;2022-08-19T18:18:29;97336.66;;;22.88;61.61
22181;BME280;11256;50.830;12.834;2022-08-19T18:23:30;97343.25;;;22.83;61.80
22181;BME280;11256;50.830;12.834;2022-08-19T18:28:31;97363.44;;;22.84;61.84
22181;BME280;11256;50.830;12.834;2022-08-19T18:33:32;97367.72;;;22.81;61.85
22181;BME280;11256;50.830;12.834;2022-08-19T18:38:33;97350.91;;;22.71;62.01
22181;BME280;11256;50.830;12.834;2022-08-19T18:43:52;97356.44;;;22.71;61.67
22181;BME280;11256;50.830;12.834;2022-08-19T18:49:15;97362.31;;;22.66;61.82
22181;BME280;11256;50.830;12.834;2022-08-19T18:54:18;97370.09;;;22.60;61.77
22181;BME280;11256;50.830;12.834;2022-08-19T18:59:18;97364.50;;;22.57;61.88
22181;BME280;11256;50.830;12.834;2022-08-19T19:04:22;97382.22;;;22.56;62.03
22181;BME280;11256;50.830;12.834;2022-08-19T19:09:23;97372.19;;;22.48;61.83
22181;BME280;11256;50.830;12.834;2022-08-19T19:14:34;97384.84;;;22.49;61.85
22181;BME280;11256;50.830;12.834;2022-08-19T19:19:35;97383.50;;;22.43;61.98
22181;BME280;11256;50.830;12.834;2022-08-19T19:24:37;97376.69;;;22.37;61.80
22181;BME280;11256;50.830;12.834;2022-08-19T19:29:39;97383.31;;;22.32;61.38
22181;BME280;11256;50.830;12.834;2022-08-19T19:34:40;97386.78;;;22.29;62.06
22181;BME280;11256;50.830;12.834;2022-08-19T19:39:40;97389.81;;;22.24;62.04
22181;BME280;11256;50.830;12.834;2022-08-19T19:44:42;97381.94;;;22.23;62.11
22181;BME280;11256;50.830;12.834;2022-08-19T19:49:47;97383.53;;;22.24;62.05
22181;BME280;11256;50.830;12.834;2022-08-19T19:54:50;97360.63;;;22.23;62.10
22181;BME280;11256;50.830;12.834;2022-08-19T19:59:50;97368.41;;;22.18;62.14
22181;BME280;11256;50.830;12.834;2022-08-19T20:04:51;97364.41;;;22.15;62.01
22181;BME280;11256;50.830;12.834;2022-08-19T20:09:52;97354.91;;;22.13;62.20
22181;BME280;11256;50.830;12.834;2022-08-19T20:14:52;97352.50;;;22.11;62.25
22181;BME280;11256;50.830;12.834;2022-08-19T20:19:53;97348.50;;;22.09;62.33
22181;BME280;11256;50.830;12.834;2022-08-19T20:24:57;97354.00;;;22.09;62.25
22181;BME280;11256;50.830;12.834;2022-08-19T20:29:57;97343.72;;;22.06;62.49
22181;BME280;11256;50.830;12.834;2022-08-19T20:34:58;97357.06;;;22.04;62.38
22181;BME280;11256;50.830;12.834;2022-08-19T20:39:58;97364.91;;;22.02;62.53
22181;BME280;11256;50.830;12.834;2022-08-19T20:45:01;97388.31;;;22.08;62.20
22181;BME280;11256;50.830;12.834;2022-08-19T20:50:04;97399.34;;;22.08;62.43
22181;BME280;11256;50.830;12.834;2022-08-19T20:55:05;97394.91;;;22.03;62.66
22181;BME280;11256;50.830;12.834;2022-08-19T21:00:06;97384.50;;;21.97;62.94
22181;BME280;11256;50.830;12.834;2022-08-19T21:05:11;97393.88;;;21.92;62.62
22181;BME280;11256;50.830;12.834;2022-08-19T21:10:12;97384.06;;;21.95;62.77
22181;BME280;11256;50.830;12.834;2022-08-19T21:15:15;97390.75;;;21.94;62.64
22181;BME280;11256;50.830;12.834;2022-08-19T21:20:16;97381.97;;;21.88;62.66
22181;BME280;11256;50.830;12.834;2022-08-19T21:25:17;97389.06;;;21.89;62.59
22181;BME280;11256;50.830;12.834;2022-08-19T21:30:18;97384.19;;;21.83;62.96
22181;BME280;11256;50.830;12.834;2022-08-19T21:35:19;97398.44;;;21.85;62.64
22181;BME280;11256;50.830;12.834;2022-08-19T21:40:19;97406.44;;;21.90;62.58
22181;BME280;11256;50.830;12.834;2022-08-19T21:45:20;97407.22;;;21.90;62.91
22181;BME280;11256;50.830;12.834;2022-08-19T21:50:23;97393.63;;;21.82;62.90
22181;BME280;11256;50.830;12.834;2022-08-19T21:55:24;97383.69;;;21.77;63.25
22181;BME280;11256;50.830;12.834;2022-08-19T22:00:26;97378.16;;;21.77;62.83
22181;BME280;11256;50.830;12.834;2022-08-19T22:05:27;97364.56;;;21.69;62.78
22181;BME280;11256;50.830;12.834;2022-08-19T22:10:31;97375.22;;;21.70;63.37
22181;BME280;11256;50.830;12.834;2022-08-19T22:15:32;97372.84;;;21.69;63.23
22181;BME280;11256;50.830;12.834;2022-08-19T22:20:32;97386.16;;;21.67;63.28
22181;BME280;11256;50.830;12.834;2022-08-19T22:25:39;97389.66;;;21.64;62.95
22181;BME280;11256;50.830;12.834;2022-08-19T22:30:42;97399.09;;;21.63;63.38
22181;BME280;11256;50.830;12.834;2022-08-19T22:35:43;97400.22;;;21.62;63.38
22181;BME280;11256;50.830;12.834;2022-08-19T22:40:47;97380.47;;;21.60;62.80
22181;BME280;11256;50.830;12.834;2022-08-19T22:45:49;97380.19;;;21.65;63.04
22181;BME280;11256;50.830;12.834;2022-08-19T22:50:51;97378.88;;;21.74;63.15
22181;BME280;11256;50.830;12.834;2022-08-19T22:56:11;97366.88;;;21.51;63.46
22181;BME280;11256;50.830;12.834;2022-08-19T23:01:13;97374.97;;;21.60;63.54
22181;BME280;11256;50.830;12.834;2022-08-19T23:06:14;97369.28;;;21.53;63.49
22181;BME280;11256;50.830;12.834;2022-08-19T23:11:14;97375.97;;;21.52;63.54
22181;BME280;11256;50.830;12.834;2022-08-19T23:16:14;97387.50;;;21.57;63.46
22181;BME280;11256;50.830;12.834;2022-08-19T23:21:15;97389.38;;;21.53;63.34
22181;BME280;11256;50.830;12.834;2022-08-19T23:26:15;97379.34;;;21.45;63.51
22181;BME280;11256;50.830;12.834;2022-08-19T23:31:15;97386.81;;;21.45;63.46
22181;BME280;11256;50.830;12.834;2022-08-19T23:36:16;97386.03;;;21.44;63.57
22181;BME280;11256;50.830;12.834;2022-08-19T23:41:19;97385.22;;;21.44;63.30
22181;BME280;11256;50.830;12.834;2022-08-19T23:46:21;97369.66;;;21.36;63.15
22181;BME280;11256;50.830;12.834;2022-08-19T23:51:21;97376.06;;;21.40;63.28
22181;BME280;11256;50.830;12.834;2022-08-19T23:56:21;97376.94;;;21.44;63.34
